Time;durP1;ratioP1;P1;durP2;ratioP2;P2;SDS_P1;SDS_P2;PMS_P1;PMS_P2;Temp;Humidity;BMP_temperature;BMP_pressure;BME280_temperature;BME280_humidity;BME280_pressure;Samples;Min_cycle;Max_cycle;Signal;HPM_P1;HPM_P2
2022/10/04 00:01:57;;;;;;;;;;;12.20;99.90;;;;;;5078054;28;19912;-63
2022/10/04 00:04:25;;;;;;;;;;;12.20;99.90;;;;;;5077400;28;19910;-63
2022/10/04 00:06:57;;;;;;;;;;;12.20;99.90;;;;;;5077484;28;20010;-63
2022/10/04 00:09:24;;;;;;;;;;;12.20;99.90;;;;;;5076656;28;19908;-64
2022/10/04 00:11:52;;;;;;;;;;;12.10;99.90;;;;;;5076531;28;19909;-63
2022/10/04 00:14:18;;;;;;;;;;;12.20;99.90;;;;;;5077645;28;19944;-63
2022/10/04 00:16:44;;;;;;;;;;;12.20;99.90;;;;;;5076606;28;19951;-63
2022/10/04 00:19:13;;;;;;;;;;;12.30;99.90;;;;;;5077564;28;19931;-63
2022/10/04 00:21:56;;;;;;;;;;;12.30;99.90;;;;;;5077334;28;19966;-63
2022/10/04 00:24:26;;;;;;;;;;;12.40;99.90;;;;;;5077584;28;19914;-63
2022/10/04 00:26:52;;;;;;;;;;;12.30;99.90;;;;;;5077303;28;20220;-63
2022/10/04 00:29:34;;;;;;;;;;;12.30;99.90;;;;;;5077279;28;19904;-63
2022/10/04 00:32:09;;;;;;;;;;;12.20;99.90;;;;;;5077230;28;19920;-63
2022/10/04 00:34:34;;;;;;;;;;;12.20;99.90;;;;;;5077209;28;19912;-64
2022/10/04 00:37:01;;;;;;;;;;;12.10;99.90;;;;;;5077103;28;19908;-64
2022/10/04 00:39:33;;;;;;;;;;;12.10;99.90;;;;;;5076950;28;19913;-63
2022/10/04 00:41:59;;;;;;;;;;;12.10;99.90;;;;;;5077066;28;19994;-63
2022/10/04 00:44:43;;;;;;;;;;;12.00;99.90;;;;;;5059630;28;20007;-64
2022/10/04 00:47:32;;;;;;;;;;;12.00;99.90;;;;;;5076398;28;19958;-64
2022/10/04 00:50:02;;;;;;;;;;;12.00;99.90;;;;;;5071424;28;19908;-63
2022/10/04 00:52:33;;;;;;;;;;;11.90;99.90;;;;;;5076284;28;19909;-63
2022/10/04 00:55:03;;;;;;;;;;;11.90;99.90;;;;;;5076474;28;19909;-63
2022/10/04 00:57:41;;;;;;;;;;;11.80;99.90;;;;;;5077744;28;19916;-63
2022/10/04 01:00:11;;;;;;;;;;;11.80;99.90;;;;;;5076798;28;19919;-63
2022/10/04 01:02:49;;;;;;;;;;;11.80;99.90;;;;;;5076944;28;19908;-63
2022/10/04 01:05:18;;;;;;;;;;;11.80;99.90;;;;;;5076898;28;20218;-63
2022/10/04 01:07:45;;;;;;;;;;;11.70;99.90;;;;;;5076992;28;19955;-63
2022/10/04 01:10:20;;;;;;;;;;;11.70;99.90;;;;;;5079899;28;19974;-63
2022/10/04 01:13:02;;;;;;;;;;;11.60;99.90;;;;;;5081442;28;19916;-63
2022/10/04 01:15:32;;;;;;;;;;;11.60;99.90;;;;;;5080382;28;19969;-63
2022/10/04 01:18:24;;;;;;;;;;;11.70;99.90;;;;;;5081013;28;19916;-63
2022/10/04 01:20:53;;;;;;;;;;;11.60;99.90;;;;;;5078291;28;19909;-64
2022/10/04 01:23:42;;;;;;;;;;;11.50;99.90;;;;;;5080390;28;19915;-63
2022/10/04 01:26:23;;;;;;;;;;;11.50;99.90;;;;;;5052210;28;19919;-63
2022/10/04 01:28:49;;;;;;;;;;;11.50;99.90;;;;;;5080563;28;20195;-63
2022/10/04 01:31:15;;;;;;;;;;;11.50;99.90;;;;;;5080162;28;19985;-63
2022/10/04 01:33:41;;;;;;;;;;;11.50;99.90;;;;;;5079447;28;19912;-63
2022/10/04 01:36:06;;;;;;;;;;;11.60;99.90;;;;;;5062748;28;19923;-63
2022/10/04 01:38:32;;;;;;;;;;;11.50;99.90;;;;;;5079962;28;19958;-63
2022/10/04 01:40:59;;;;;;;;;;;11.50;99.90;;;;;;5079410;28;19916;-63
2022/10/04 01:43:30;;;;;;;;;;;11.40;99.90;;;;;;5080024;28;19919;-63
2022/10/04 01:46:01;;;;;;;;;;;11.40;99.90;;;;;;5079973;28;19927;-63
2022/10/04 01:48:32;;;;;;;;;;;11.30;99.90;;;;;;5079972;28;19908;-63
2022/10/04 01:50:59;;;;;;;;;;;11.30;99.90;;;;;;5079388;28;19962;-63
2022/10/04 01:53:29;;;;;;;;;;;11.30;99.90;;;;;;5079872;28;19908;-63
2022/10/04 01:56:06;;;;;;;;;;;11.30;99.90;;;;;;5079742;28;19937;-63
2022/10/04 01:58:38;;;;;;;;;;;11.20;99.90;;;;;;5079668;28;19912;-63
2022/10/04 02:01:16;;;;;;;;;;;11.30;99.90;;;;;;5079015;28;19908;-63
2022/10/04 02:03:46;;;;;;;;;;;11.30;99.90;;;;;;5079655;28;19908;-63
2022/10/04 02:06:12;;;;;;;;;;;11.30;99.90;;;;;;5079594;28;19916;-63
2022/10/04 02:08:44;;;;;;;;;;;11.20;99.90;;;;;;5079540;28;19995;-63
2022/10/04 02:11:15;;;;;;;;;;;11.20;99.90;;;;;;5079603;28;19916;-63
2022/10/04 02:13:41;;;;;;;;;;;11.10;99.90;;;;;;5079739;28;20272;-63
2022/10/04 02:16:10;;;;;;;;;;;11.00;99.90;;;;;;5078635;28;19916;-63
2022/10/04 02:18:37;;;;;;;;;;;11.00;99.90;;;;;;5078473;28;19925;-63
2022/10/04 02:21:04;;;;;;;;;;;11.00;99.90;;;;;;5078734;28;19948;-63
2022/10/04 02:23:30;;;;;;;;;;;11.00;99.90;;;;;;5079194;28;19908;-63
2022/10/04 02:25:55;;;;;;;;;;;11.00;99.90;;;;;;5079224;28;20200;-64
2022/10/04 02:28:21;;;;;;;;;;;11.00;99.90;;;;;;5079153;28;19912;-63
2022/10/04 02:32:56;;;;;;;;;;;10.90;99.90;;;;;;5078425;28;19912;-63
2022/10/04 02:33:39;;;;;;;;;;;10.90;99.90;;;;;;5078257;28;19912;-63
2022/10/04 02:36:06;;;;;;;;;;;10.90;99.90;;;;;;5078246;28;19991;-63
2022/10/04 02:38:41;;;;;;;;;;;10.80;99.90;;;;;;5079516;28;19912;-63
2022/10/04 02:41:16;;;;;;;;;;;10.80;99.90;;;;;;5078924;28;19916;-63
2022/10/04 02:43:46;;;;;;;;;;;10.80;99.90;;;;;;5078905;28;20192;-63
2022/10/04 02:46:13;;;;;;;;;;;10.70;99.90;;;;;;5079125;28;19919;-63
2022/10/04 02:48:44;;;;;;;;;;;10.70;99.90;;;;;;5078964;28;20299;-63
2022/10/04 02:51:13;;;;;;;;;;;10.70;99.90;;;;;;5094841;28;19908;-64
2022/10/04 02:53:42;;;;;;;;;;;10.60;99.90;;;;;;5078664;28;20310;-63
2022/10/04 02:56:09;;;;;;;;;;;10.70;99.90;;;;;;5078588;28;20014;-63
2022/10/04 02:58:36;;;;;;;;;;;10.70;99.90;;;;;;5078503;28;20005;-63
2022/10/04 03:01:02;;;;;;;;;;;10.70;99.90;;;;;;5078518;28;19935;-63
2022/10/04 03:03:29;;;;;;;;;;;10.70;99.90;;;;;;5078373;28;19912;-63
2022/10/04 03:06:04;;;;;;;;;;;10.70;99.90;;;;;;5078455;28;19948;-63
2022/10/04 03:08:33;;;;;;;;;;;10.80;99.90;;;;;;5078379;28;19909;-63
2022/10/04 03:11:01;;;;;;;;;;;10.70;99.90;;;;;;5078255;28;20214;-63
2022/10/04 03:13:26;;;;;;;;;;;10.80;99.90;;;;;;5078818;28;19923;-63
2022/10/04 03:15:52;;;;;;;;;;;10.80;99.90;;;;;;5078008;28;19921;-63
2022/10/04 03:18:18;;;;;;;;;;;10.70;99.90;;;;;;5077360;28;19999;-63
2022/10/04 03:20:44;;;;;;;;;;;10.60;99.90;;;;;;5078104;28;19954;-63
2022/10/04 03:23:12;;;;;;;;;;;10.60;99.90;;;;;;5078132;28;19949;-64
2022/10/04 03:26:07;;;;;;;;;;;10.60;99.90;;;;;;5077999;28;19962;-63
2022/10/04 03:28:35;;;;;;;;;;;10.60;99.90;;;;;;5068910;28;19908;-63
2022/10/04 03:31:01;;;;;;;;;;;10.60;99.90;;;;;;5077343;28;19963;-63
2022/10/04 03:33:28;;;;;;;;;;;10.60;99.90;;;;;;5077661;28;19952;-62
2022/10/04 03:35:55;;;;;;;;;;;10.50;99.90;;;;;;5077118;28;20003;-62
2022/10/04 03:38:22;;;;;;;;;;;10.40;99.90;;;;;;5078432;28;20245;-63
2022/10/04 03:41:06;;;;;;;;;;;10.40;99.90;;;;;;5077767;28;19908;-62
2022/10/04 03:43:33;;;;;;;;;;;10.50;99.90;;;;;;5078336;28;20003;-63
2022/10/04 03:45:59;;;;;;;;;;;10.50;99.90;;;;;;5077608;28;20309;-63
2022/10/04 03:48:37;;;;;;;;;;;10.50;99.90;;;;;;5077676;28;19909;-63
2022/10/04 03:51:04;;;;;;;;;;;10.50;99.90;;;;;;5077703;28;19977;-63
2022/10/04 03:53:42;;;;;;;;;;;10.50;99.90;;;;;;5078173;28;19919;-64
2022/10/04 03:56:11;;;;;;;;;;;10.60;99.90;;;;;;5078107;28;19912;-63
2022/10/04 03:58:36;;;;;;;;;;;10.40;99.90;;;;;;5077364;28;19923;-62
2022/10/04 04:01:02;;;;;;;;;;;10.40;99.90;;;;;;5077408;28;20200;-63
2022/10/04 04:03:28;;;;;;;;;;;10.40;99.90;;;;;;5077453;28;19929;-63
2022/10/04 04:05:58;;;;;;;;;;;10.50;99.90;;;;;;5077407;28;19908;-63
2022/10/04 04:08:35;;;;;;;;;;;10.60;99.90;;;;;;5077454;28;19908;-63
2022/10/04 04:11:03;;;;;;;;;;;10.60;99.90;;;;;;5076584;28;19908;-63
2022/10/04 04:13:32;;;;;;;;;;;10.60;99.90;;;;;;5077424;28;19908;-64
2022/10/04 04:15:59;;;;;;;;;;;10.60;99.90;;;;;;5076421;28;19912;-63
2022/10/04 04:18:28;;;;;;;;;;;10.60;99.90;;;;;;5077688;28;19960;-63
2022/10/04 04:20:58;;;;;;;;;;;10.50;99.90;;;;;;5077171;28;20291;-63
2022/10/04 04:23:31;;;;;;;;;;;10.50;99.90;;;;;;5077333;28;20010;-64
2022/10/04 04:26:00;;;;;;;;;;;10.40;99.90;;;;;;5077161;28;19908;-64
2022/10/04 04:28:28;;;;;;;;;;;10.40;99.90;;;;;;5077262;28;19909;-64
2022/10/04 04:31:01;;;;;;;;;;;10.20;99.90;;;;;;5077179;28;19908;-64
2022/10/04 04:33:50;;;;;;;;;;;10.10;99.90;;;;;;5076983;28;20287;-64
2022/10/04 04:36:16;;;;;;;;;;;10.00;99.90;;;;;;5077271;28;20295;-64
2022/10/04 04:41:30;;;;;;;;;;;10.10;99.90;;;;;;5077162;28;19912;-65
2022/10/04 04:43:56;;;;;;;;;;;10.00;99.90;;;;;;5080011;28;19923;-63
2022/10/04 04:46:22;;;;;;;;;;;9.90;99.90;;;;;;5081100;28;19958;-64
2022/10/04 04:48:50;;;;;;;;;;;9.80;99.90;;;;;;5081050;28;20275;-63
2022/10/04 04:51:20;;;;;;;;;;;9.80;99.90;;;;;;5081025;28;19934;-63
2022/10/04 04:53:46;;;;;;;;;;;9.70;99.90;;;;;;5080910;28;19923;-63
2022/10/04 04:56:18;;;;;;;;;;;9.70;99.90;;;;;;5080595;28;19982;-63
2022/10/04 04:58:45;;;;;;;;;;;9.80;99.90;;;;;;5080790;28;19955;-63
2022/10/04 05:01:22;;;;;;;;;;;9.80;99.90;;;;;;5080765;28;19904;-63
2022/10/04 05:04:06;;;;;;;;;;;9.90;99.90;;;;;;5079885;28;20279;-64
2022/10/04 05:06:33;;;;;;;;;;;10.00;99.90;;;;;;5080496;28;20017;-64
2022/10/04 05:09:00;;;;;;;;;;;10.00;99.90;;;;;;5080697;28;19905;-64
2022/10/04 05:11:35;;;;;;;;;;;10.00;99.90;;;;;;5080570;28;19912;-64
2022/10/04 05:14:04;;;;;;;;;;;9.90;99.90;;;;;;5080679;28;20168;-63
2022/10/04 05:16:37;;;;;;;;;;;9.90;99.90;;;;;;5080568;28;19961;-63
2022/10/04 05:19:06;;;;;;;;;;;10.00;99.90;;;;;;5079940;28;20296;-63
2022/10/04 05:21:33;;;;;;;;;;;10.00;99.90;;;;;;5080396;28;19995;-64
2022/10/04 05:24:10;;;;;;;;;;;10.00;99.90;;;;;;5080357;28;19909;-64
2022/10/04 05:26:36;;;;;;;;;;;10.00;99.90;;;;;;5079589;28;19923;-63
2022/10/04 05:29:10;;;;;;;;;;;10.00;99.90;;;;;;5080464;28;19913;-64
2022/10/04 05:31:55;;;;;;;;;;;9.90;99.90;;;;;;5079528;28;19923;-64
2022/10/04 05:34:22;;;;;;;;;;;9.90;99.90;;;;;;5080512;28;19919;-63
2022/10/04 05:37:15;;;;;;;;;;;9.80;99.90;;;;;;5079448;28;19977;-64
2022/10/04 05:39:41;;;;;;;;;;;9.90;99.90;;;;;;5078434;28;19948;-64
2022/10/04 05:42:33;;;;;;;;;;;9.90;99.90;;;;;;5080137;28;19956;-64
2022/10/04 05:45:00;;;;;;;;;;;9.90;99.90;;;;;;5077700;28;19919;-64
2022/10/04 05:47:29;;;;;;;;;;;9.90;99.90;;;;;;5079932;28;20287;-64
2022/10/04 05:49:56;;;;;;;;;;;10.00;99.90;;;;;;5080132;28;19908;-64
2022/10/04 05:52:37;;;;;;;;;;;9.90;99.90;;;;;;5079613;28;19999;-64
2022/10/04 05:55:09;;;;;;;;;;;9.80;99.90;;;;;;5078582;28;19924;-64
2022/10/04 05:57:59;;;;;;;;;;;9.80;99.90;;;;;;5079493;28;19912;-64
2022/10/04 06:00:46;;;;;;;;;;;9.70;99.90;;;;;;5051021;28;19917;-63
2022/10/04 06:03:31;;;;;;;;;;;9.70;99.90;;;;;;5079626;28;19916;-63
2022/10/04 06:06:03;;;;;;;;;;;9.70;99.90;;;;;;5079442;28;19942;-63
2022/10/04 06:08:29;;;;;;;;;;;9.70;99.90;;;;;;5079530;28;20004;-63
2022/10/04 06:11:13;;;;;;;;;;;9.80;99.90;;;;;;5079439;28;19936;-63
2022/10/04 06:13:59;;;;;;;;;;;9.70;99.90;;;;;;5079371;28;19918;-63
2022/10/04 06:16:27;;;;;;;;;;;9.80;99.90;;;;;;5079366;28;19912;-63
2022/10/04 06:18:56;;;;;;;;;;;9.80;99.90;;;;;;5079210;28;19920;-63
2022/10/04 06:21:30;;;;;;;;;;;9.90;99.90;;;;;;5078483;28;20179;-63
2022/10/04 06:23:56;;;;;;;;;;;9.80;99.90;;;;;;5079270;28;19916;-63
2022/10/04 06:26:24;;;;;;;;;;;9.80;99.90;;;;;;5079296;28;19904;-63
2022/10/04 06:28:55;;;;;;;;;;;9.90;99.90;;;;;;5079215;28;19912;-63
2022/10/04 06:31:21;;;;;;;;;;;10.00;99.90;;;;;;5079231;28;20343;-63
2022/10/04 06:34:05;;;;;;;;;;;10.00;99.90;;;;;;5079086;28;19940;-63
2022/10/04 06:36:50;;;;;;;;;;;10.00;99.90;;;;;;5078966;28;20003;-63
2022/10/04 06:39:32;;;;;;;;;;;10.00;99.90;;;;;;5078864;28;19920;-63
2022/10/04 06:42:04;;;;;;;;;;;10.10;99.90;;;;;;5078850;28;20242;-62
2022/10/04 06:44:45;;;;;;;;;;;10.10;99.90;;;;;;5079135;28;19916;-62
2022/10/04 06:47:14;;;;;;;;;;;10.00;99.90;;;;;;5078923;28;19916;-62
2022/10/04 06:49:39;;;;;;;;;;;9.90;99.90;;;;;;5078735;28;19918;-62
2022/10/04 06:52:06;;;;;;;;;;;9.80;99.90;;;;;;5079084;28;20196;-62
2022/10/04 06:54:50;;;;;;;;;;;9.80;99.90;;;;;;5078626;28;19909;-62
2022/10/04 06:57:31;;;;;;;;;;;9.80;99.90;;;;;;5078496;28;20291;-63
2022/10/04 07:00:09;;;;;;;;;;;10.00;99.90;;;;;;5078575;28;19920;-62
2022/10/04 07:03:07;;;;;;;;;;;10.10;99.90;;;;;;5078510;28;20231;-63
2022/10/04 07:05:43;;;;;;;;;;;10.10;99.90;;;;;;5055841;28;19909;-62
2022/10/04 07:08:11;;;;;;;;;;;10.20;99.90;;;;;;5078352;28;19909;-63
2022/10/04 07:10:47;;;;;;;;;;;10.30;99.90;;;;;;5077653;28;20015;-62
2022/10/04 07:13:32;;;;;;;;;;;10.30;99.90;;;;;;5078346;28;19909;-62
2022/10/04 07:16:16;;;;;;;;;;;10.20;99.90;;;;;;5078056;28;20266;-63
2022/10/04 07:19:02;;;;;;;;;;;10.30;99.90;;;;;;5078106;28;19916;-61
2022/10/04 07:21:35;;;;;;;;;;;10.40;99.90;;;;;;5078029;28;19918;-62
2022/10/04 07:24:02;;;;;;;;;;;10.40;99.90;;;;;;5078111;28;19934;-62
2022/10/04 07:26:31;;;;;;;;;;;10.50;99.90;;;;;;5078175;28;19970;-62
2022/10/04 07:31:45;;;;;;;;;;;10.70;99.90;;;;;;5078022;28;19919;-62
2022/10/04 07:34:16;;;;;;;;;;;10.90;99.90;;;;;;5077205;28;20268;-63
2022/10/04 07:36:44;;;;;;;;;;;11.00;99.90;;;;;;5077902;28;19908;-62
2022/10/04 07:39:13;;;;;;;;;;;11.00;99.90;;;;;;5078004;28;20175;-62
2022/10/04 07:42:00;;;;;;;;;;;11.10;99.90;;;;;;5077792;28;19909;-62
2022/10/04 07:44:35;;;;;;;;;;;11.20;99.90;;;;;;5078042;28;20326;-63
2022/10/04 07:47:19;;;;;;;;;;;11.30;99.90;;;;;;5077645;28;19908;-63
2022/10/04 07:49:45;;;;;;;;;;;11.40;99.90;;;;;;5077177;28;19908;-62
2022/10/04 07:52:11;;;;;;;;;;;11.40;99.90;;;;;;5078222;28;20011;-63
2022/10/04 07:54:43;;;;;;;;;;;11.40;99.90;;;;;;5076844;28;20283;-62
2022/10/04 07:57:18;;;;;;;;;;;11.50;99.90;;;;;;5077492;28;19918;-62
2022/10/04 07:59:47;;;;;;;;;;;11.60;99.90;;;;;;5077530;28;19912;-62
2022/10/04 08:02:12;;;;;;;;;;;11.80;99.90;;;;;;5076804;28;19922;-63
2022/10/04 08:04:48;;;;;;;;;;;11.90;99.90;;;;;;5077426;28;20003;-65
2022/10/04 08:07:16;;;;;;;;;;;12.00;99.90;;;;;;5077463;28;19912;-63
2022/10/04 08:09:47;;;;;;;;;;;12.10;99.90;;;;;;5077360;28;19908;-63
2022/10/04 08:12:13;;;;;;;;;;;12.10;99.90;;;;;;5077452;28;20261;-64
2022/10/04 08:14:59;;;;;;;;;;;12.20;99.90;;;;;;5076408;28;19970;-64
2022/10/04 08:17:43;;;;;;;;;;;12.20;99.90;;;;;;5077114;28;19909;-65
2022/10/04 08:20:25;;;;;;;;;;;12.40;99.90;;;;;;5077371;28;19916;-64
2022/10/04 08:23:00;;;;;;;;;;;12.50;99.90;;;;;;5077368;28;19908;-63
2022/10/04 08:25:27;;;;;;;;;;;12.60;99.90;;;;;;5077306;28;20254;-64
2022/10/04 08:30:49;;;;;;;;;;;12.50;99.90;;;;;;5077303;28;19908;-63
2022/10/04 08:33:19;;;;;;;;;;;12.50;99.90;;;;;;5077228;28;19919;-64
2022/10/04 08:35:52;;;;;;;;;;;12.60;99.90;;;;;;5077100;28;19932;-65
2022/10/04 08:38:36;;;;;;;;;;;12.60;99.90;;;;;;5077399;28;20234;-67
2022/10/04 08:41:02;;;;;;;;;;;12.80;99.90;;;;;;5078060;28;20319;-67
2022/10/04 08:43:48;;;;;;;;;;;12.80;99.90;;;;;;5076727;28;19908;-66
2022/10/04 08:46:20;;;;;;;;;;;12.80;99.90;;;;;;5076453;28;19959;-64
2022/10/04 08:49:04;;;;;;;;;;;13.00;99.90;;;;;;5077208;28;20276;-63
2022/10/04 08:51:55;;;;;;;;;;;13.10;99.90;;;;;;5077040;28;19940;-63
2022/10/04 08:54:39;;;;;;;;;;;13.20;99.90;;;;;;5064991;22;20027;-65
2022/10/04 08:57:24;;;;;;;;;;;13.30;99.90;;;;;;5056976;28;20004;-63
2022/10/04 08:59:49;;;;;;;;;;;13.40;99.90;;;;;;5056764;28;19912;-65
2022/10/04 09:02:36;;;;;;;;;;;13.40;99.90;;;;;;5039430;28;19909;-62
2022/10/04 09:05:20;;;;;;;;;;;13.50;99.90;;;;;;5056999;28;20178;-67
2022/10/04 09:07:46;;;;;;;;;;;13.60;99.90;;;;;;5057036;28;19919;-64
2022/10/04 09:10:27;;;;;;;;;;;13.60;99.90;;;;;;5056679;28;19913;-64
2022/10/04 09:13:03;;;;;;;;;;;13.60;99.90;;;;;;5056811;28;19909;-67
2022/10/04 09:15:48;;;;;;;;;;;13.60;99.90;;;;;;5056782;28;19920;-63
2022/10/04 09:18:13;;;;;;;;;;;13.50;99.90;;;;;;5039163;28;19913;-64
2022/10/04 09:20:39;;;;;;;;;;;13.50;99.90;;;;;;5056665;28;20299;-63
2022/10/04 09:23:23;;;;;;;;;;;13.60;99.90;;;;;;5056890;28;20303;-63
2022/10/04 09:25:51;;;;;;;;;;;13.80;99.90;;;;;;5056593;28;19908;-62
2022/10/04 09:28:26;;;;;;;;;;;13.90;99.90;;;;;;5056533;28;19927;-65
2022/10/04 09:30:55;;;;;;;;;;;14.00;99.90;;;;;;5041644;28;20034;-68
2022/10/04 09:33:36;;;;;;;;;;;13.90;99.90;;;;;;5042799;28;19920;-63
2022/10/04 09:36:02;;;;;;;;;;;13.90;99.90;;;;;;5060125;28;20014;-63
2022/10/04 09:38:46;;;;;;;;;;;14.00;99.90;;;;;;5060048;28;20213;-64
2022/10/04 09:41:20;;;;;;;;;;;14.10;99.90;;;;;;5060123;28;19936;-62
2022/10/04 09:44:05;;;;;;;;;;;14.40;99.90;;;;;;5060197;28;20019;-65
2022/10/04 09:46:33;;;;;;;;;;;14.50;99.90;;;;;;5060247;28;19916;-63
2022/10/04 09:49:18;;;;;;;;;;;14.50;99.90;;;;;;5059842;28;19904;-65
2022/10/04 09:52:04;;;;;;;;;;;14.60;99.90;;;;;;5059832;28;19923;-63
2022/10/04 09:54:49;;;;;;;;;;;14.60;99.90;;;;;;5020100;28;20248;-64
2022/10/04 09:57:18;;;;;;;;;;;14.70;99.90;;;;;;5020182;28;20242;-63
2022/10/04 09:59:52;;;;;;;;;;;15.00;99.90;;;;;;5019883;28;19913;-65
2022/10/04 10:02:37;;;;;;;;;;;15.10;99.90;;;;;;5020680;28;19910;-62
2022/10/04 10:05:21;;;;;;;;;;;15.10;99.90;;;;;;5019921;28;19920;-62
2022/10/04 10:08:08;;;;;;;;;;;15.00;99.90;;;;;;5019852;28;19967;-65
2022/10/04 10:13:39;;;;;;;;;;;15.70;99.90;;;;;;5019706;28;20196;-63
2022/10/04 10:16:20;;;;;;;;;;;16.20;99.90;;;;;;5019757;28;19910;-64
2022/10/04 10:19:04;;;;;;;;;;;16.30;99.90;;;;;;5019875;28;19913;-62
2022/10/04 10:21:39;;;;;;;;;;;15.80;99.90;;;;;;5019625;28;20286;-64
2022/10/04 10:24:31;;;;;;;;;;;15.90;99.90;;;;;;5002397;28;19909;-62
2022/10/04 10:27:04;;;;;;;;;;;15.90;99.90;;;;;;5018838;28;19909;-63
2022/10/04 10:29:45;;;;;;;;;;;16.00;99.90;;;;;;5019387;28;19948;-63
2022/10/04 10:32:29;;;;;;;;;;;16.30;99.90;;;;;;5019602;28;19952;-66
2022/10/04 10:35:08;;;;;;;;;;;16.70;99.90;;;;;;5019626;28;19984;-63
2022/10/04 10:37:47;;;;;;;;;;;17.90;99.90;;;;;;5019843;28;19941;-63
2022/10/04 10:40:36;;;;;;;;;;;18.40;99.90;;;;;;5019168;28;19909;-63
2022/10/04 10:43:07;;;;;;;;;;;18.00;99.90;;;;;;5019445;28;20218;-63
2022/10/04 10:45:39;;;;;;;;;;;17.60;99.90;;;;;;5019198;28;19909;-64
2022/10/04 10:48:20;;;;;;;;;;;18.20;99.90;;;;;;5018442;28;19945;-64
2022/10/04 10:51:00;;;;;;;;;;;18.40;99.90;;;;;;5019085;28;19968;-64
2022/10/04 10:53:45;;;;;;;;;;;18.20;99.90;;;;;;5041817;28;19916;-64
2022/10/04 10:56:23;;;;;;;;;;;18.60;99.90;;;;;;5041432;28;20009;-65
2022/10/04 10:58:51;;;;;;;;;;;18.50;99.90;;;;;;5058389;28;20019;-64
2022/10/04 11:01:20;;;;;;;;;;;19.00;99.90;;;;;;5058526;28;19971;-63
2022/10/04 11:03:47;;;;;;;;;;;19.50;99.90;;;;;;5041029;28;19951;-64
2022/10/04 11:06:24;;;;;;;;;;;18.90;99.90;;;;;;5058490;28;19913;-63
2022/10/04 11:09:08;;;;;;;;;;;18.60;99.90;;;;;;5058711;28;20288;-63
2022/10/04 11:11:38;;;;;;;;;;;18.40;99.90;;;;;;5058373;28;19908;-64
2022/10/04 11:14:27;;;;;;;;;;;18.80;99.90;;;;;;5058244;28;19955;-64
2022/10/04 11:17:04;;;;;;;;;;;18.70;99.90;;;;;;5030646;28;19978;-63
2022/10/04 11:19:49;;;;;;;;;;;18.60;99.90;;;;;;5058059;28;19923;-63
2022/10/04 11:22:33;;;;;;;;;;;18.90;99.90;;;;;;5058773;28;19920;-63
2022/10/04 11:25:38;;;;;;;;;;;18.90;99.90;;;;;;5058110;28;19920;-63
2022/10/04 11:28:04;;;;;;;;;;;19.10;99.90;;;;;;4997406;28;19909;-63
2022/10/04 11:30:50;;;;;;;;;;;19.90;99.90;;;;;;4981056;28;20297;-63
2022/10/04 11:33:31;;;;;;;;;;;20.20;99.90;;;;;;5034611;28;19908;-62
2022/10/04 11:35:56;;;;;;;;;;;20.80;99.90;;;;;;5057915;28;20008;-63
2022/10/04 11:38:43;;;;;;;;;;;21.00;99.90;;;;;;5057783;28;20244;-62
2022/10/04 11:41:28;;;;;;;;;;;21.20;99.90;;;;;;5057826;28;19908;-62
2022/10/04 11:44:14;;;;;;;;;;;21.00;99.90;;;;;;5057744;28;20204;-63
2022/10/04 11:46:44;;;;;;;;;;;20.80;99.90;;;;;;5057775;28;19962;-62
2022/10/04 11:49:24;;;;;;;;;;;19.50;99.90;;;;;;5057663;28;19908;-65
2022/10/04 11:52:08;;;;;;;;;;;19.50;99.90;;;;;;5058001;28;19919;-61
2022/10/04 11:54:34;;;;;;;;;;;20.20;99.90;;;;;;5057685;28;20025;-65
2022/10/04 11:57:09;;;;;;;;;;;20.10;99.90;;;;;;5040371;28;19956;-62
2022/10/04 11:59:48;;;;;;;;;;;19.80;99.90;;;;;;5057462;28;19924;-65
2022/10/04 12:02:23;;;;;;;;;;;19.60;99.90;;;;;;5058139;28;19908;-64
2022/10/04 12:05:01;;;;;;;;;;;19.60;99.90;;;;;;5057598;28;19992;-62
2022/10/04 12:07:26;;;;;;;;;;;19.60;99.90;;;;;;5057436;28;19909;-62
2022/10/04 12:10:01;;;;;;;;;;;19.80;99.90;;;;;;5057444;28;20013;-63
2022/10/04 12:12:39;;;;;;;;;;;20.10;99.90;;;;;;5057957;28;19909;-64
2022/10/04 12:15:21;;;;;;;;;;;20.10;99.90;;;;;;5057254;28;19908;-62
2022/10/04 12:18:05;;;;;;;;;;;20.10;99.90;;;;;;5057226;28;19909;-63
2022/10/04 12:20:52;;;;;;;;;;;20.00;99.90;;;;;;5057328;28;20223;-64
2022/10/04 12:23:53;;;;;;;;;;;19.80;99.90;;;;;;5056851;28;19978;-62
2022/10/04 12:26:31;;;;;;;;;;;20.10;99.90;;;;;;4997272;28;19968;-63
2022/10/04 12:29:00;;;;;;;;;;;20.40;99.90;;;;;;5050204;28;19909;-63
2022/10/04 12:31:55;;;;;;;;;;;20.50;99.90;;;;;;5057218;28;19999;-63
2022/10/04 12:34:22;;;;;;;;;;;20.80;99.90;;;;;;5044036;28;20231;-63
2022/10/04 12:37:03;;;;;;;;;;;20.50;99.90;;;;;;5057109;28;19963;-64
2022/10/04 12:39:38;;;;;;;;;;;20.20;99.90;;;;;;5039627;28;20264;-63
2022/10/04 12:42:05;;;;;;;;;;;20.50;99.90;;;;;;5057107;28;19915;-64
2022/10/04 12:44:51;;;;;;;;;;;20.30;99.90;;;;;;5057046;28;19909;-63
2022/10/04 12:47:26;;;;;;;;;;;19.70;99.90;;;;;;5046724;28;19909;-64
2022/10/04 12:50:15;;;;;;;;;;;19.40;99.90;;;;;;5057256;28;19982;-63
2022/10/04 12:52:48;;;;;;;;;;;19.30;99.90;;;;;;5056822;28;19912;-63
2022/10/04 12:55:19;;;;;;;;;;;19.50;99.90;;;;;;5056872;28;19915;-64
2022/10/04 12:57:54;;;;;;;;;;;19.50;99.90;;;;;;5056906;28;19916;-64
2022/10/04 13:00:21;;;;;;;;;;;19.70;99.90;;;;;;5039503;28;19908;-62
2022/10/04 13:03:07;;;;;;;;;;;19.90;99.90;;;;;;5057366;28;19974;-64
2022/10/04 13:05:32;;;;;;;;;;;20.20;99.90;;;;;;5060822;28;19917;-63
2022/10/04 13:08:18;;;;;;;;;;;20.20;99.90;;;;;;5060658;28;19915;-64
2022/10/04 13:10:54;;;;;;;;;;;20.50;99.90;;;;;;5042346;28;19921;-65
2022/10/04 13:13:22;;;;;;;;;;;20.80;99.90;;;;;;5060820;28;20291;-62
2022/10/04 13:15:57;;;;;;;;;;;21.10;99.90;;;;;;5060561;28;20193;-62
2022/10/04 13:18:23;;;;;;;;;;;21.00;99.90;;;;;;5060370;28;19916;-62
2022/10/04 13:20:59;;;;;;;;;;;20.80;99.90;;;;;;5043235;28;20221;-62
2022/10/04 13:23:47;;;;;;;;;;;20.70;99.90;;;;;;5060949;28;19909;-60
2022/10/04 13:26:29;;;;;;;;;;;20.60;99.90;;;;;;5060046;28;20197;-64
2022/10/04 13:28:55;;;;;;;;;;;20.80;99.90;;;;;;5060478;28;20189;-61
2022/10/04 13:31:24;;;;;;;;;;;20.40;99.90;;;;;;5060335;28;19909;-61
2022/10/04 13:33:54;;;;;;;;;;;20.50;99.90;;;;;;5042779;28;19999;-61
2022/10/04 13:36:40;;;;;;;;;;;20.90;99.90;;;;;;5042875;28;19909;-63
2022/10/04 13:39:06;;;;;;;;;;;20.90;99.90;;;;;;5058946;28;19913;-60
2022/10/04 13:41:31;;;;;;;;;;;20.90;99.90;;;;;;5042688;28;19915;-59
2022/10/04 13:44:10;;;;;;;;;;;21.40;99.90;;;;;;5059999;28;19909;-60
2022/10/04 13:47:03;;;;;;;;;;;21.30;99.90;;;;;;5060694;28;19915;-61
2022/10/04 13:49:48;;;;;;;;;;;21.30;99.90;;;;;;5037698;28;20184;-65
2022/10/04 13:58:13;;;;;;;;;;;21.80;99.90;;;;;;5060062;28;20295;-64
2022/10/04 14:00:41;;;;;;;;;;;22.70;99.90;;;;;;5059739;28;19915;-63
2022/10/04 14:03:25;;;;;;;;;;;23.70;99.90;;;;;;5042340;28;19905;-66
2022/10/04 14:06:04;;;;;;;;;;;24.00;99.90;;;;;;5059794;28;20152;-65
2022/10/04 14:08:29;;;;;;;;;;;24.70;99.90;;;;;;5060110;28;19916;-65
2022/10/04 14:11:01;;;;;;;;;;;24.00;99.90;;;;;;5059611;28;20288;-68
2022/10/04 14:13:39;;;;;;;;;;;23.60;99.90;;;;;;5059427;28;19947;-65
2022/10/04 14:16:19;;;;;;;;;;;22.90;99.90;;;;;;5058747;28;19915;-65
2022/10/04 14:19:11;;;;;;;;;;;23.50;99.90;;;;;;5059323;28;19918;-65
2022/10/04 14:21:53;;;;;;;;;;;24.10;99.90;;;;;;5059562;28;20208;-65
2022/10/04 14:24:34;;;;;;;;;;;23.90;99.90;;;;;;5059718;28;19908;-65
2022/10/04 14:27:24;;;;;;;;;;;24.10;99.90;;;;;;5059271;28;20208;-66
2022/10/04 14:29:49;;;;;;;;;;;24.50;99.90;;;;;;5059185;28;19909;-67
2022/10/04 14:32:19;;;;;;;;;;;25.70;99.90;;;;;;5059122;28;20356;-65
2022/10/04 14:34:54;;;;;;;;;;;25.80;99.90;;;;;;5059047;28;19995;-62
2022/10/04 14:37:35;;;;;;;;;;;25.60;99.90;;;;;;5059100;28;20002;-63
2022/10/04 14:40:19;;;;;;;;;;;25.70;99.90;;;;;;5058795;28;19913;-65
2022/10/04 14:42:51;;;;;;;;;;;25.40;99.90;;;;;;5059612;28;19909;-66
2022/10/04 14:45:23;;;;;;;;;;;24.80;99.90;;;;;;5041497;28;19908;-66
2022/10/04 14:48:08;;;;;;;;;;;24.50;99.90;;;;;;5059368;28;19919;-65
2022/10/04 14:50:52;;;;;;;;;;;24.50;99.90;;;;;;5058770;28;19909;-64
2022/10/04 14:53:34;;;;;;;;;;;22.50;99.90;;;;;;5058684;28;19920;-66
2022/10/04 14:56:03;;;;;;;;;;;21.80;99.90;;;;;;5058745;28;19909;-66
2022/10/04 14:58:35;;;;;;;;;;;21.50;99.90;;;;;;5058609;28;19912;-66
2022/10/04 15:01:19;;;;;;;;;;;21.20;99.90;;;;;;5058546;28;19908;-67
2022/10/04 15:04:07;;;;;;;;;;;20.70;99.90;;;;;;5058384;28;19919;-65
2022/10/04 15:06:36;;;;;;;;;;;20.10;99.90;;;;;;5041236;28;19916;-65
2022/10/04 15:09:18;;;;;;;;;;;20.10;99.90;;;;;;5058399;28;19964;-64
2022/10/04 15:12:03;;;;;;;;;;;20.00;99.90;;;;;;5058383;28;19908;-65
2022/10/04 15:14:33;;;;;;;;;;;20.00;99.90;;;;;;5058357;28;19909;-64
2022/10/04 15:17:00;;;;;;;;;;;19.80;99.90;;;;;;5058911;28;19909;-64
2022/10/04 15:19:32;;;;;;;;;;;19.80;99.90;;;;;;5040902;28;19909;-65